Time;durP1;ratioP1;P1;durP2;ratioP2;P2;SDS_P1;SDS_P2;PMS_P1;PMS_P2;Temp;Humidity;BMP_temperature;BMP_pressure;BME280_temperature;BME280_humidity;BME280_pressure;Samples;Min_cycle;Max_cycle;Signal;HPM_P1;HPM_P2
2023/03/27 00:01:53;;;;;;;12.82;9.57;;;;;;;;;;6335347;22;20006;-73
2023/03/27 00:04:20;;;;;;;5.93;5.40;;;;;;;;;;6335076;22;20075;-73
2023/03/27 00:06:47;;;;;;;10.20;9.18;;;;;;;;;;6335466;22;20007;-74
2023/03/27 00:09:15;;;;;;;8.15;7.03;;;;;;;;;;6307638;22;20030;-74
2023/03/27 00:11:41;;;;;;;6.97;5.90;;;;;;;;;;6335366;22;20017;-73
2023/03/27 00:14:07;;;;;;;8.57;7.72;;;;;;;;;;6335312;22;20025;-73
2023/03/27 00:16:34;;;;;;;8.57;7.78;;;;;;;;;;6335279;22;20060;-73
2023/03/27 00:19:00;;;;;;;6.85;6.22;;;;;;;;;;6334656;22;20018;-74
2023/03/27 00:21:27;;;;;;;5.78;5.30;;;;;;;;;;6334827;22;20017;-73
2023/03/27 00:23:53;;;;;;;9.68;8.77;;;;;;;;;;6307335;22;20022;-74
2023/03/27 00:26:20;;;;;;;8.35;7.55;;;;;;;;;;6334811;22;20018;-74
2023/03/27 00:28:46;;;;;;;8.57;7.63;;;;;;;;;;6335158;22;20014;-74
2023/03/27 00:31:13;;;;;;;9.60;8.35;;;;;;;;;;6307378;22;20451;-73
2023/03/27 00:33:40;;;;;;;9.57;8.68;;;;;;;;;;6334459;22;20014;-74
2023/03/27 00:36:06;;;;;;;7.90;7.18;;;;;;;;;;6334684;22;20393;-72
2023/03/27 00:38:32;;;;;;;9.13;8.23;;;;;;;;;;6334908;22;20485;-73
2023/03/27 00:40:59;;;;;;;7.47;6.55;;;;;;;;;;6307473;22;20007;-74
2023/03/27 00:43:26;;;;;;;10.18;9.18;;;;;;;;;;6307214;22;20015;-74
2023/03/27 00:45:56;;;;;;;11.65;8.52;;;;;;;;;;6307240;22;20029;-74
2023/03/27 00:48:23;;;;;;;10.02;9.02;;;;;;;;;;6306977;22;20011;-75
2023/03/27 00:50:49;;;;;;;9.55;8.65;;;;;;;;;;6334715;22;20475;-74
2023/03/27 00:53:16;;;;;;;10.10;9.00;;;;;;;;;;6281555;22;20059;-74
2023/03/27 00:55:46;;;;;;;11.13;9.00;;;;;;;;;;6307207;22;20019;-73
2023/03/27 00:58:15;;;;;;;8.90;7.20;;;;;;;;;;6334548;22;20462;-74
2023/03/27 01:00:41;;;;;;;12.65;10.40;;;;;;;;;;6308522;22;20011;-74
2023/03/27 01:03:07;;;;;;;11.07;9.93;;;;;;;;;;6307375;22;20072;-73
2023/03/27 01:05:34;;;;;;;8.82;8.02;;;;;;;;;;6307402;22;20007;-73
2023/03/27 01:08:00;;;;;;;12.00;9.70;;;;;;;;;;6281608;22;20140;-73
2023/03/27 01:10:29;;;;;;;15.00;9.63;;;;;;;;;;6281187;22;20547;-74
2023/03/27 01:12:55;;;;;;;9.30;8.38;;;;;;;;;;6307345;22;20010;-74
2023/03/27 01:15:24;;;;;;;11.07;9.88;;;;;;;;;;6334319;22;20045;-74
2023/03/27 01:18:09;;;;;;;11.40;9.52;;;;;;;;;;6307027;22;20041;-74
2023/03/27 01:21:05;;;;;;;12.73;11.10;;;;;;;;;;6334721;22;20017;-73
2023/03/27 01:23:54;;;;;;;13.02;10.20;;;;;;;;;;6308512;22;20015;-73
2023/03/27 01:26:30;;;;;;;13.70;11.02;;;;;;;;;;6281376;22;20015;-73
2023/03/27 01:29:09;;;;;;;13.35;10.30;;;;;;;;;;6307001;22;20358;-74
2023/03/27 01:31:53;;;;;;;11.80;10.18;;;;;;;;;;6334406;22;20474;-73
2023/03/27 01:34:20;;;;;;;10.70;9.35;;;;;;;;;;6306348;22;20026;-74
2023/03/27 01:36:46;;;;;;;12.82;10.52;;;;;;;;;;6334494;22;20094;-73
2023/03/27 01:39:27;;;;;;;11.43;9.93;;;;;;;;;;6306294;22;20060;-74
2023/03/27 01:41:54;;;;;;;10.98;9.77;;;;;;;;;;6306845;22;20010;-74
2023/03/27 01:44:23;;;;;;;13.20;10.73;;;;;;;;;;6306415;22;20086;-74
2023/03/27 01:46:53;;;;;;;7.25;6.50;;;;;;;;;;6306976;22;20344;-73
2023/03/27 01:49:23;;;;;;;12.20;9.77;;;;;;;;;;6306376;22;20015;-74
2023/03/27 01:51:51;;;;;;;12.48;10.27;;;;;;;;;;6307152;22;20022;-74
2023/03/27 01:54:28;;;;;;;11.50;9.77;;;;;;;;;;6306723;22;20007;-73
2023/03/27 01:57:01;;;;;;;12.93;11.38;;;;;;;;;;6280934;22;20066;-74
2023/03/27 01:59:27;;;;;;;11.20;10.07;;;;;;;;;;6280960;22;20424;-72
2023/03/27 02:01:58;;;;;;;12.48;8.50;;;;;;;;;;6334169;22;20010;-74
2023/03/27 02:04:26;;;;;;;8.55;7.68;;;;;;;;;;6306569;22;20011;-75
2023/03/27 02:06:54;;;;;;;14.48;11.45;;;;;;;;;;6334342;22;20037;-74
2023/03/27 02:09:21;;;;;;;12.65;11.32;;;;;;;;;;6306345;22;20508;-73
2023/03/27 02:12:15;;;;;;;12.27;10.13;;;;;;;;;;6280949;22;20045;-74
2023/03/27 02:14:43;;;;;;;13.65;12.13;;;;;;;;;;6302949;22;20021;-74
2023/03/27 02:17:11;;;;;;;14.23;11.80;;;;;;;;;;6306310;22;20025;-75
2023/03/27 02:19:56;;;;;;;10.27;9.27;;;;;;;;;;6255772;22;20359;-73
2023/03/27 02:22:23;;;;;;;12.27;10.98;;;;;;;;;;6306765;22;20018;-75
2023/03/27 02:24:54;;;;;;;10.65;9.60;;;;;;;;;;6281017;22;20049;-73
2023/03/27 02:27:23;;;;;;;11.30;10.20;;;;;;;;;;6306529;22;20026;-74
2023/03/27 02:29:50;;;;;;;9.50;8.60;;;;;;;;;;6306543;22;20094;-72
2023/03/27 02:32:19;;;;;;;14.20;12.07;;;;;;;;;;6280343;22;20023;-74
2023/03/27 02:34:49;;;;;;;11.93;9.43;;;;;;;;;;6306333;22;20017;-74
2023/03/27 02:37:24;;;;;;;11.77;10.60;;;;;;;;;;6280567;22;20011;-74
2023/03/27 02:40:28;;;;;;;11.90;10.68;;;;;;;;;;6286028;22;20095;-73
2023/03/27 02:43:13;;;;;;;12.13;11.02;;;;;;;;;;6283967;22;20015;-73
2023/03/27 02:45:45;;;;;;;12.35;11.07;;;;;;;;;;6283117;22;20011;-74
2023/03/27 02:48:20;;;;;;;8.15;7.38;;;;;;;;;;6308117;22;20011;-73
2023/03/27 02:50:52;;;;;;;12.15;11.00;;;;;;;;;;6308543;22;20018;-74
2023/03/27 02:53:20;;;;;;;11.27;10.18;;;;;;;;;;6335900;22;20010;-75
2023/03/27 02:55:54;;;;;;;12.07;10.98;;;;;;;;;;6308512;22;20011;-75
2023/03/27 02:58:21;;;;;;;14.57;12.10;;;;;;;;;;6308592;22;20039;-75
2023/03/27 03:00:56;;;;;;;12.90;10.90;;;;;;;;;;6285067;22;20015;-75
2023/03/27 03:03:52;;;;;;;15.63;12.95;;;;;;;;;;6308673;22;20013;-74
2023/03/27 03:06:33;;;;;;;13.40;12.07;;;;;;;;;;6310207;22;20021;-74
2023/03/27 03:09:05;;;;;;;18.38;13.63;;;;;;;;;;6308891;22;20010;-74
2023/03/27 03:11:36;;;;;;;15.13;12.80;;;;;;;;;;6283590;22;20348;-74
2023/03/27 03:14:02;;;;;;;21.83;13.97;;;;;;;;;;6308407;22;20034;-74
2023/03/27 03:16:28;;;;;;;13.23;11.20;;;;;;;;;;6282063;22;20014;-75
2023/03/27 03:18:55;;;;;;;22.20;14.38;;;;;;;;;;6308970;22;20029;-75
2023/03/27 03:21:22;;;;;;;15.85;10.00;;;;;;;;;;6310055;22;20362;-75
2023/03/27 03:23:48;;;;;;;12.38;9.75;;;;;;;;;;6312339;22;20013;-76
2023/03/27 03:26:17;;;;;;;14.25;10.65;;;;;;;;;;6312019;22;20015;-74
2023/03/27 03:28:46;;;;;;;20.55;14.25;;;;;;;;;;6312642;22;20030;-75
2023/03/27 03:31:13;;;;;;;27.88;17.10;;;;;;;;;;6285324;22;20022;-74
2023/03/27 03:33:40;;;;;;;27.15;15.50;;;;;;;;;;6313755;22;20097;-74
2023/03/27 03:36:07;;;;;;;17.45;11.50;;;;;;;;;;6316003;22;20011;-74
2023/03/27 03:38:37;;;;;;;32.15;16.48;;;;;;;;;;6316130;22;20033;-74
2023/03/27 03:41:05;;;;;;;35.83;16.13;;;;;;;;;;6313619;22;20007;-74
2023/03/27 03:43:31;;;;;;;24.20;12.82;;;;;;;;;;6312421;22;20041;-72
2023/03/27 03:45:58;;;;;;;20.67;13.80;;;;;;;;;;6313522;22;20015;-73
2023/03/27 03:48:24;;;;;;;10.18;7.80;;;;;;;;;;6312198;22;20035;-74
2023/03/27 03:50:50;;;;;;;15.15;10.98;;;;;;;;;;6308788;22;20026;-73
2023/03/27 03:53:17;;;;;;;14.77;10.50;;;;;;;;;;6336070;22;20010;-73
2023/03/27 03:55:44;;;;;;;18.38;10.80;;;;;;;;;;6256205;22;20022;-73
2023/03/27 03:58:10;;;;;;;18.13;12.23;;;;;;;;;;6307314;22;20094;-74
2023/03/27 04:00:37;;;;;;;5.32;4.88;;;;;;;;;;6281272;22;20011;-74
2023/03/27 04:03:07;;;;;;;13.88;8.38;;;;;;;;;;6307058;22;20037;-74
2023/03/27 04:05:35;;;;;;;23.40;13.68;;;;;;;;;;6307631;22;20038;-74
2023/03/27 04:08:01;;;;;;;18.35;10.07;;;;;;;;;;6307166;22;20015;-73
2023/03/27 04:10:43;;;;;;;30.83;14.30;;;;;;;;;;6335192;22;20026;-73
2023/03/27 04:13:18;;;;;;;24.42;10.02;;;;;;;;;;6307281;22;20034;-73
2023/03/27 04:15:54;;;;;;;15.43;8.80;;;;;;;;;;6284184;22;20014;-73
2023/03/27 04:18:31;;;;;;;29.88;13.88;;;;;;;;;;6307230;22;20010;-74
2023/03/27 04:20:58;;;;;;;44.35;15.90;;;;;;;;;;6307367;22;20021;-75
2023/03/27 04:23:30;;;;;;;27.48;12.25;;;;;;;;;;6307775;22;20336;-74
2023/03/27 04:26:02;;;;;;;39.85;14.40;;;;;;;;;;6284007;22;20064;-75
2023/03/27 04:28:50;;;;;;;35.47;15.02;;;;;;;;;;6306732;22;20034;-75
2023/03/27 04:31:39;;;;;;;34.15;13.50;;;;;;;;;;6333683;22;20062;-74
2023/03/27 04:34:31;;;;;;;39.17;14.43;;;;;;;;;;6334602;22;20018;-76
2023/03/27 04:37:29;;;;;;;28.42;12.18;;;;;;;;;;6292994;22;20060;-76
2023/03/27 04:40:09;;;;;;;22.05;9.93;;;;;;;;;;6306286;22;20020;-76
2023/03/27 04:42:43;;;;;;;9.07;6.07;;;;;;;;;;6307843;22;20512;-75
2023/03/27 04:45:11;;;;;;;32.25;14.13;;;;;;;;;;6336757;22;20015;-75
2023/03/27 04:47:38;;;;;;;43.15;15.45;;;;;;;;;;6308836;22;20336;-76
2023/03/27 04:50:05;;;;;;;35.60;14.00;;;;;;;;;;6282730;22;20043;-75
2023/03/27 04:52:32;;;;;;;35.33;14.05;;;;;;;;;;6256131;22;20019;-75
2023/03/27 04:55:03;;;;;;;44.88;15.43;;;;;;;;;;6306724;22;20311;-75
2023/03/27 04:57:30;;;;;;;32.78;13.48;;;;;;;;;;6306747;22;20010;-75
2023/03/27 04:59:59;;;;;;;41.00;15.25;;;;;;;;;;6281619;22;20742;-75
2023/03/27 05:02:51;;;;;;;48.33;18.10;;;;;;;;;;6317953;22;20010;-75
2023/03/27 05:05:24;;;;;;;56.70;18.13;;;;;;;;;;6306371;22;20063;-74
2023/03/27 05:07:51;;;;;;;57.03;19.77;;;;;;;;;;6334583;22;20098;-74
2023/03/27 05:10:20;;;;;;;40.05;18.13;;;;;;;;;;6306652;22;20173;-74
2023/03/27 05:12:47;;;;;;;26.77;13.18;;;;;;;;;;6311186;22;20010;-79
2023/03/27 05:15:15;;;;;;;17.27;10.40;;;;;;;;;;6281263;22;20451;-78
2023/03/27 05:17:44;;;;;;;12.60;9.70;;;;;;;;;;6281312;22;20007;-80
2023/03/27 05:20:11;;;;;;;14.30;10.07;;;;;;;;;;6283156;22;20015;-79
2023/03/27 05:22:37;;;;;;;14.95;9.55;;;;;;;;;;6281413;22;20451;-79
2023/03/27 05:25:15;;;;;;;14.43;10.43;;;;;;;;;;6307397;22;20014;-79
2023/03/27 05:27:45;;;;;;;15.80;9.88;;;;;;;;;;6278729;22;20419;-81
2023/03/27 05:30:15;;;;;;;12.98;9.27;;;;;;;;;;6306846;22;20371;-78
2023/03/27 05:32:47;;;;;;;10.88;8.30;;;;;;;;;;6339647;22;20088;-81
2023/03/27 05:35:23;;;;;;;13.05;9.02;;;;;;;;;;6288278;22;20059;-82
2023/03/27 05:37:51;;;;;;;14.13;9.07;;;;;;;;;;6283183;22;20018;-80
2023/03/27 05:40:31;;;;;;;7.63;5.93;;;;;;;;;;6308239;22;20073;-79
2023/03/27 05:42:58;;;;;;;12.07;10.35;;;;;;;;;;6308068;22;20119;-81
2023/03/27 05:45:28;;;;;;;17.77;10.48;;;;;;;;;;6257547;22;20007;-81
2023/03/27 05:47:55;;;;;;;13.35;10.30;;;;;;;;;;6306453;22;20487;-81
2023/03/27 05:50:22;;;;;;;17.80;11.52;;;;;;;;;;6281255;22;20022;-79
2023/03/27 05:52:53;;;;;;;17.08;11.85;;;;;;;;;;6306249;22;20464;-80
2023/03/27 05:55:21;;;;;;;16.10;11.27;;;;;;;;;;6306319;22;20014;-80
2023/03/27 05:57:47;;;;;;;18.58;12.20;;;;;;;;;;6334493;22;20014;-81
2023/03/27 06:00:15;;;;;;;19.80;12.43;;;;;;;;;;6280611;22;20013;-81
2023/03/27 06:03:06;;;;;;;20.35;12.20;;;;;;;;;;6306459;22;20045;-77
2023/03/27 06:05:59;;;;;;;19.40;13.40;;;;;;;;;;6285554;22;20547;-80
2023/03/27 06:08:30;;;;;;;18.38;12.15;;;;;;;;;;6306022;22;20034;-80
2023/03/27 06:11:14;;;;;;;19.13;13.30;;;;;;;;;;6334765;22;20023;-81
2023/03/27 06:13:44;;;;;;;21.27;14.30;;;;;;;;;;6313770;22;20033;-86
2023/03/27 06:16:15;;;;;;;22.03;14.17;;;;;;;;;;6335113;22;20015;-88
2023/03/27 06:18:41;;;;;;;21.60;12.95;;;;;;;;;;6360196;22;20006;-84
2023/03/27 06:21:09;;;;;;;13.05;10.27;;;;;;;;;;6308771;22;20002;-83
2023/03/27 06:23:35;;;;;;;15.73;10.02;;;;;;;;;;6324526;22;20010;-83
2023/03/27 06:26:27;;;;;;;22.17;12.48;;;;;;;;;;6313326;22;20029;-82
2023/03/27 06:29:13;;;;;;;17.00;11.18;;;;;;;;;;6314208;22;20006;-79
2023/03/27 06:32:00;;;;;;;20.38;11.35;;;;;;;;;;6331911;22;20101;-76
2023/03/27 06:34:53;;;;;;;15.60;10.40;;;;;;;;;;6326236;22;20019;-79
2023/03/27 06:40:38;;;;;;;21.38;12.38;;;;;;;;;;6304400;22;20015;-78
2023/03/27 06:43:05;;;;;;;20.90;14.10;;;;;;;;;;6305775;22;20061;-81
2023/03/27 06:45:41;;;;;;;19.75;11.77;;;;;;;;;;6304743;22;20015;-80
2023/03/27 06:48:27;;;;;;;19.55;13.73;;;;;;;;;;6283085;22;20007;-79
2023/03/27 06:50:55;;;;;;;27.52;15.82;;;;;;;;;;6303660;22;20068;-81
2023/03/27 06:53:22;;;;;;;30.77;14.95;;;;;;;;;;6303959;22;20064;-81
2023/03/27 06:55:48;;;;;;;22.85;14.88;;;;;;;;;;6304307;22;20018;-79
2023/03/27 06:58:17;;;;;;;24.30;15.25;;;;;;;;;;6277830;22;20014;-79
2023/03/27 07:00:44;;;;;;;21.52;13.77;;;;;;;;;;6331335;22;20017;-80
2023/03/27 07:03:16;;;;;;;24.60;14.43;;;;;;;;;;6334099;22;20539;-80
2023/03/27 07:06:01;;;;;;;21.17;13.80;;;;;;;;;;6306445;22;20050;-80
2023/03/27 07:08:34;;;;;;;24.85;15.43;;;;;;;;;;6306601;22;20015;-80
2023/03/27 07:11:02;;;;;;;21.65;13.60;;;;;;;;;;6306542;22;20023;-80
2023/03/27 07:13:29;;;;;;;23.88;14.20;;;;;;;;;;6307092;22;20007;-81
2023/03/27 07:15:58;;;;;;;24.02;14.00;;;;;;;;;;6307269;22;20015;-80
2023/03/27 07:18:24;;;;;;;28.27;14.38;;;;;;;;;;6287688;22;20007;-80
2023/03/27 07:20:53;;;;;;;27.90;14.02;;;;;;;;;;6309503;22;20359;-80
2023/03/27 07:23:22;;;;;;;24.25;14.77;;;;;;;;;;6307283;22;20014;-80
2023/03/27 07:25:59;;;;;;;21.13;13.88;;;;;;;;;;6307091;22;20011;-79
2023/03/27 07:28:45;;;;;;;15.82;12.75;;;;;;;;;;6333552;22;20010;-80
2023/03/27 07:31:12;;;;;;;17.75;12.23;;;;;;;;;;6308375;22;20029;-80
2023/03/27 07:33:39;;;;;;;16.67;10.35;;;;;;;;;;6277120;22;20095;-80
2023/03/27 07:36:06;;;;;;;21.65;13.23;;;;;;;;;;6304770;22;20019;-81
2023/03/27 07:38:41;;;;;;;16.33;11.63;;;;;;;;;;6305050;22;20007;-79
2023/03/27 07:41:22;;;;;;;18.95;12.50;;;;;;;;;;6303446;22;20039;-81
2023/03/27 07:43:58;;;;;;;16.95;12.38;;;;;;;;;;6303120;22;20419;-80
2023/03/27 07:46:26;;;;;;;16.90;11.88;;;;;;;;;;6302929;22;20045;-80
2023/03/27 07:48:55;;;;;;;21.58;13.70;;;;;;;;;;6303251;22;20014;-80
2023/03/27 07:51:24;;;;;;;23.53;13.77;;;;;;;;;;6303100;22;20015;-80
2023/03/27 07:53:55;;;;;;;21.88;14.18;;;;;;;;;;6303415;22;20086;-81
2023/03/27 07:56:29;;;;;;;17.70;12.52;;;;;;;;;;6304531;22;20011;-81
2023/03/27 07:59:15;;;;;;;22.38;13.93;;;;;;;;;;6305025;22;20007;-80
2023/03/27 08:01:42;;;;;;;15.23;10.98;;;;;;;;;;6251991;22;20509;-79
2023/03/27 08:04:08;;;;;;;19.15;11.73;;;;;;;;;;6305452;22;20452;-80
2023/03/27 08:06:36;;;;;;;14.55;10.00;;;;;;;;;;6305430;22;20082;-82
2023/03/27 08:09:05;;;;;;;26.23;13.32;;;;;;;;;;6308593;22;20304;-81
2023/03/27 08:11:31;;;;;;;26.33;14.75;;;;;;;;;;6307748;22;20023;-80
2023/03/27 08:13:57;;;;;;;19.75;12.68;;;;;;;;;;6308231;22;20034;-81
2023/03/27 08:16:27;;;;;;;23.85;13.05;;;;;;;;;;6309267;22;20069;-82
2023/03/27 08:18:55;;;;;;;22.33;12.45;;;;;;;;;;6259300;22;20014;-79
2023/03/27 08:21:22;;;;;;;18.38;10.90;;;;;;;;;;6282028;22;20117;-82
2023/03/27 08:23:50;;;;;;;18.75;12.30;;;;;;;;;;6284435;22;20046;-80
2023/03/27 08:26:28;;;;;;;21.17;13.15;;;;;;;;;;6319072;22;20018;-82
2023/03/27 08:29:00;;;;;;;16.85;11.40;;;;;;;;;;6326427;22;20018;-79
2023/03/27 08:31:30;;;;;;;19.15;12.23;;;;;;;;;;6325316;22;20023;-82
2023/03/27 08:34:00;;;;;;;17.27;11.07;;;;;;;;;;6319474;22;20019;-81
2023/03/27 08:36:33;;;;;;;13.20;10.27;;;;;;;;;;6308085;22;20011;-81
2023/03/27 08:39:01;;;;;;;15.18;11.68;;;;;;;;;;6307672;22;20197;-81
2023/03/27 08:41:47;;;;;;;14.23;10.63;;;;;;;;;;6305762;22;20048;-82
2023/03/27 08:44:33;;;;;;;11.10;9.98;;;;;;;;;;6306032;22;20011;-83
2023/03/27 08:47:24;;;;;;;12.77;9.57;;;;;;;;;;6305346;22;20011;-82
2023/03/27 08:50:04;;;;;;;16.60;10.43;;;;;;;;;;6300229;22;20049;-80
2023/03/27 08:52:47;;;;;;;17.50;11.10;;;;;;;;;;6306097;22;20039;-81
2023/03/27 08:55:32;;;;;;;15.43;10.10;;;;;;;;;;6306311;22;20015;-80
2023/03/27 08:58:19;;;;;;;14.40;12.27;;;;;;;;;;6284080;22;20004;-82
2023/03/27 09:00:57;;;;;;;15.80;12.63;;;;;;;;;;6305226;22;20537;-80
2023/03/27 09:03:27;;;;;;;14.93;11.93;;;;;;;;;;6279889;22;20391;-81
2023/03/27 09:05:53;;;;;;;12.98;10.93;;;;;;;;;;6280178;22;20015;-82
2023/03/27 09:08:23;;;;;;;12.07;10.75;;;;;;;;;;6306497;22;20034;-80
2023/03/27 09:10:50;;;;;;;19.33;11.85;;;;;;;;;;6304556;22;20023;-81
2023/03/27 09:13:26;;;;;;;11.68;9.43;;;;;;;;;;6278549;22;20007;-81
2023/03/27 09:16:12;;;;;;;7.53;6.82;;;;;;;;;;6278171;22;20539;-80
2023/03/27 09:18:40;;;;;;;7.18;5.93;;;;;;;;;;6276345;22;20011;-81
2023/03/27 09:21:14;;;;;;;7.70;7.05;;;;;;;;;;6280060;22;20007;-81
2023/03/27 09:23:40;;;;;;;6.22;5.72;;;;;;;;;;6281693;22;20363;-79
2023/03/27 09:26:35;;;;;;;9.23;7.57;;;;;;;;;;6295439;22;20015;-81
2023/03/27 09:29:16;;;;;;;8.00;7.22;;;;;;;;;;6299378;22;20015;-77
2023/03/27 09:31:45;;;;;;;7.95;7.25;;;;;;;;;;6299206;22;20023;-77
2023/03/27 09:34:13;;;;;;;6.95;6.35;;;;;;;;;;6279605;22;20071;-77
2023/03/27 09:36:39;;;;;;;7.40;6.82;;;;;;;;;;6305391;22;20072;-76
2023/03/27 09:39:07;;;;;;;7.32;6.70;;;;;;;;;;6305705;22;20018;-77
2023/03/27 09:41:36;;;;;;;7.50;6.88;;;;;;;;;;6333891;22;20022;-77
2023/03/27 09:44:07;;;;;;;8.00;6.37;;;;;;;;;;6280643;22;20354;-78
2023/03/27 09:46:39;;;;;;;6.80;6.20;;;;;;;;;;6280579;22;20014;-79
2023/03/27 09:49:12;;;;;;;9.48;6.28;;;;;;;;;;6280319;22;20046;-78
2023/03/27 09:51:46;;;;;;;7.78;6.65;;;;;;;;;;6280571;22;20025;-77
2023/03/27 09:54:31;;;;;;;6.03;5.60;;;;;;;;;;6310122;22;20006;-79
2023/03/27 09:57:03;;;;;;;7.57;6.88;;;;;;;;;;6306588;22;20050;-79
2023/03/27 09:59:33;;;;;;;5.68;5.20;;;;;;;;;;6305347;22;20090;-78
2023/03/27 10:02:21;;;;;;;8.75;7.93;;;;;;;;;;6304865;22;20060;-79
2023/03/27 10:05:13;;;;;;;3.55;3.30;;;;;;;;;;6305528;22;20010;-78
2023/03/27 10:07:40;;;;;;;9.77;8.98;;;;;;;;;;6279728;22;20018;-77
2023/03/27 10:10:18;;;;;;;6.45;5.97;;;;;;;;;;6282167;22;20746;-79
2023/03/27 10:13:12;;;;;;;6.88;6.13;;;;;;;;;;6332735;22;20014;-78
2023/03/27 10:15:47;;;;;;;7.07;6.57;;;;;;;;;;6305552;22;20110;-79
2023/03/27 10:18:28;;;;;;;7.97;7.13;;;;;;;;;;6306054;22;20105;-76
2023/03/27 10:21:27;;;;;;;8.23;7.55;;;;;;;;;;6297370;22;20015;-76
2023/03/27 10:24:01;;;;;;;5.50;5.07;;;;;;;;;;6305361;22;20011;-77
2023/03/27 10:26:45;;;;;;;8.27;7.57;;;;;;;;;;6306973;22;20014;-82
2023/03/27 10:29:25;;;;;;;7.93;7.32;;;;;;;;;;6318123;22;20007;-82
2023/03/27 10:31:55;;;;;;;8.45;7.65;;;;;;;;;;6308001;22;20362;-82
2023/03/27 10:34:38;;;;;;;9.10;8.35;;;;;;;;;;6310594;22;20021;-84
2023/03/27 10:37:25;;;;;;;7.85;7.25;;;;;;;;;;6336716;22;20010;-82
2023/03/27 10:39:58;;;;;;;7.00;6.28;;;;;;;;;;6281830;22;20010;-81
2023/03/27 10:42:38;;;;;;;8.40;7.80;;;;;;;;;;6283054;22;20038;-79
2023/03/27 10:45:04;;;;;;;5.65;5.35;;;;;;;;;;6305372;22;20072;-79
2023/03/27 10:47:31;;;;;;;7.03;6.53;;;;;;;;;;6280585;22;20018;-79
2023/03/27 10:49:57;;;;;;;7.18;6.45;;;;;;;;;;6283429;22;20034;-81
2023/03/27 10:52:35;;;;;;;6.70;6.10;;;;;;;;;;6306966;22;20095;-80
2023/03/27 10:55:30;;;;;;;6.20;5.65;;;;;;;;;;6330320;22;20007;-80
2023/03/27 10:57:56;;;;;;;6.05;5.65;;;;;;;;;;6279738;22;20015;-79
2023/03/27 11:00:31;;;;;;;5.50;5.15;;;;;;;;;;6305709;22;20006;-80
2023/03/27 11:02:59;;;;;;;6.07;5.60;;;;;;;;;;6305646;22;20113;-79
2023/03/27 11:05:27;;;;;;;7.20;6.57;;;;;;;;;;6281308;22;20011;-80
2023/03/27 11:07:55;;;;;;;5.75;5.35;;;;;;;;;;6281724;22;20011;-80
2023/03/27 11:10:33;;;;;;;4.75;4.45;;;;;;;;;;6281303;22;20010;-79
2023/03/27 11:13:02;;;;;;;6.82;6.22;;;;;;;;;;6281873;22;20018;-79
2023/03/27 11:15:41;;;;;;;6.15;5.75;;;;;;;;;;6288405;22;20343;-80
2023/03/27 11:18:24;;;;;;;5.88;5.28;;;;;;;;;;6312154;22;20010;-81
2023/03/27 11:21:12;;;;;;;6.07;5.57;;;;;;;;;;6286276;22;20405;-79
2023/03/27 11:23:58;;;;;;;8.13;5.50;;;;;;;;;;6259824;22;20370;-80
2023/03/27 11:26:35;;;;;;;5.85;5.35;;;;;;;;;;6307913;22;20013;-80
2023/03/27 11:29:16;;;;;;;5.20;4.85;;;;;;;;;;6308202;22;20405;-79
2023/03/27 11:31:48;;;;;;;6.15;5.65;;;;;;;;;;6311743;22;20022;-79
2023/03/27 11:34:33;;;;;;;6.95;6.40;;;;;;;;;;6286115;22;20030;-80
2023/03/27 11:37:39;;;;;;;7.57;6.05;;;;;;;;;;6329203;22;20093;-81
2023/03/27 11:40:12;;;;;;;6.25;5.72;;;;;;;;;;6292157;22;20011;-82
2023/03/27 11:42:41;;;;;;;7.20;5.90;;;;;;;;;;6282276;22;20028;-81
2023/03/27 11:45:17;;;;;;;4.72;4.30;;;;;;;;;;6307440;22;20038;-78
2023/03/27 11:48:02;;;;;;;6.45;6.05;;;;;;;;;;6307771;22;20018;-79
2023/03/27 11:50:40;;;;;;;6.78;6.20;;;;;;;;;;6335276;22;20435;-81
2023/03/27 11:53:13;;;;;;;4.75;4.25;;;;;;;;;;6309750;22;20011;-81
2023/03/27 11:56:06;;;;;;;5.90;5.50;;;;;;;;;;6300425;22;20018;-81
2023/03/27 11:58:55;;;;;;;7.00;6.40;;;;;;;;;;6311235;22;20017;-81
2023/03/27 12:01:36;;;;;;;5.57;5.18;;;;;;;;;;6307681;22;20025;-77
2023/03/27 12:04:23;;;;;;;4.97;4.65;;;;;;;;;;6283137;22;20013;-76
2023/03/27 12:07:41;;;;;;;6.60;6.10;;;;;;;;;;6314977;22;20030;-80
2023/03/27 12:10:25;;;;;;;6.93;6.18;;;;;;;;;;6264944;22;20046;-78
2023/03/27 12:13:30;;;;;;;7.10;6.43;;;;;;;;;;6315895;22;20101;-79
2023/03/27 12:16:09;;;;;;;6.80;6.20;;;;;;;;;;6279975;22;20384;-79
2023/03/27 12:18:52;;;;;;;5.68;5.20;;;;;;;;;;6283025;22;20007;-79
2023/03/27 12:21:52;;;;;;;7.25;6.60;;;;;;;;;;6306058;22;20519;-79
2023/03/27 12:24:29;;;;;;;7.20;6.60;;;;;;;;;;6270298;22;20022;-77
2023/03/27 12:27:40;;;;;;;8.98;6.80;;;;;;;;;;6193054;23;20012;-80
2023/03/27 12:31:01;;;;;;;7.50;6.80;;;;;;;;;;6185125;23;20585;-80
2023/03/27 12:33:33;;;;;;;7.78;7.18;;;;;;;;;;6317840;22;20023;-78
2023/03/27 12:35:59;;;;;;;9.27;6.95;;;;;;;;;;6310067;22;20022;-79
2023/03/27 12:38:30;;;;;;;7.70;7.00;;;;;;;;;;6283403;22;20014;-79
2023/03/27 12:40:56;;;;;;;;;;;;;;;;;;6285661;22;20010;-79
2023/03/27 12:43:25;;;;;;;7.15;6.53;;;;;;;;;;6312168;22;20349;-78
2023/03/27 12:46:13;;;;;;;9.73;6.47;;;;;;;;;;6287347;22;20018;-78
2023/03/27 12:48:50;;;;;;;6.72;6.13;;;;;;;;;;6353174;22;20477;-79
2023/03/27 12:51:18;;;;;;;7.50;6.80;;;;;;;;;;6323333;22;20019;-79
2023/03/27 12:53:49;;;;;;;6.68;6.10;;;;;;;;;;6299445;22;20132;-78
2023/03/27 12:56:15;;;;;;;6.10;5.22;;;;;;;;;;6284222;22;20021;-80
2023/03/27 12:58:43;;;;;;;9.00;7.15;;;;;;;;;;6310462;22;20068;-78
2023/03/27 13:01:09;;;;;;;11.50;6.85;;;;;;;;;;6336072;22;20105;-78
2023/03/27 13:04:04;;;;;;;6.53;5.93;;;;;;;;;;6308273;22;20029;-79
2023/03/27 13:06:52;;;;;;;7.85;6.57;;;;;;;;;;6282703;22;20108;-79
2023/03/27 13:09:22;;;;;;;10.00;6.40;;;;;;;;;;6232168;22;20007;-77
2023/03/27 13:12:01;;;;;;;6.82;6.32;;;;;;;;;;6307635;22;20014;-79
2023/03/27 13:14:43;;;;;;;6.15;5.65;;;;;;;;;;6283148;22;20018;-79
2023/03/27 13:17:36;;;;;;;7.40;6.70;;;;;;;;;;6307505;22;20101;-79
2023/03/27 13:20:06;;;;;;;7.97;7.28;;;;;;;;;;6306401;22;20059;-79
2023/03/27 13:22:38;;;;;;;7.22;6.40;;;;;;;;;;6257808;22;20018;-80
2023/03/27 13:25:17;;;;;;;9.80;8.80;;;;;;;;;;6282337;22;20011;-81
2023/03/27 13:28:02;;;;;;;10.27;9.13;;;;;;;;;;6304125;22;20135;-80
2023/03/27 13:30:47;;;;;;;8.57;7.93;;;;;;;;;;6304737;22;20011;-80
2023/03/27 13:33:34;;;;;;;6.90;6.30;;;;;;;;;;6331352;22;20071;-79
2023/03/27 13:36:16;;;;;;;6.20;5.70;;;;;;;;;;6314406;22;20006;-83
2023/03/27 13:38:45;;;;;;;10.05;6.88;;;;;;;;;;6319415;22;20026;-80
2023/03/27 13:41:31;;;;;;;6.95;6.40;;;;;;;;;;6286251;22;20300;-81
2023/03/27 13:43:58;;;;;;;7.50;6.80;;;;;;;;;;6318714;22;20010;-81
2023/03/27 13:46:34;;;;;;;8.00;5.57;;;;;;;;;;6308423;22;20011;-81
2023/03/27 13:49:17;;;;;;;5.55;5.13;;;;;;;;;;6310832;22;20560;-82
2023/03/27 13:51:54;;;;;;;;;;;;;;;;;;6295095;22;20022;-84
2023/03/27 13:54:41;;;;;;;5.63;5.13;;;;;;;;;;6325555;22;19914;-80
2023/03/27 13:57:26;;;;;;;5.40;4.95;;;;;;;;;;6321739;22;20030;-82
2023/03/27 14:00:36;;;;;;;5.75;5.18;;;;;;;;;;6327121;22;20007;-82
2023/03/27 14:03:30;;;;;;;5.30;4.80;;;;;;;;;;6273065;22;20014;-85
2023/03/27 14:06:02;;;;;;;4.93;4.53;;;;;;;;;;6329989;22;20043;-82
2023/03/27 14:08:45;;;;;;;5.35;4.95;;;;;;;;;;6325915;22;20014;-83
2023/03/27 14:11:49;;;;;;;5.18;4.78;;;;;;;;;;6351530;22;20022;-82
2023/03/27 14:14:39;;;;;;;3.40;3.25;;;;;;;;;;6320733;22;20007;-84
2023/03/27 14:17:24;;;;;;;5.10;4.70;;;;;;;;;;6297423;22;20018;-83
2023/03/27 14:20:13;;;;;;;7.53;5.13;;;;;;;;;;6331131;22;20504;-81
2023/03/27 14:22:46;;;;;;;4.38;4.07;;;;;;;;;;6260795;22;20021;-78
2023/03/27 14:25:14;;;;;;;5.20;4.75;;;;;;;;;;6304798;22;20007;-79
2023/03/27 14:27:52;;;;;;;4.65;4.32;;;;;;;;;;6281232;22;20245;-79
2023/03/27 14:30:20;;;;;;;4.60;4.30;;;;;;;;;;6303313;22;20017;-80
2023/03/27 14:33:10;;;;;;;4.70;4.40;;;;;;;;;;6328472;22;20014;-79
2023/03/27 14:35:39;;;;;;;4.38;4.07;;;;;;;;;;6332504;22;20010;-80
2023/03/27 14:38:21;;;;;;;5.97;4.85;;;;;;;;;;6304245;22;20014;-80
2023/03/27 14:40:51;;;;;;;6.45;4.95;;;;;;;;;;6279993;22;20431;-80
2023/03/27 14:43:24;;;;;;;4.00;3.70;;;;;;;;;;6305467;22;20013;-82
2023/03/27 14:46:01;;;;;;;5.28;4.88;;;;;;;;;;6282339;22;20014;-80
2023/03/27 14:48:30;;;;;;;4.65;4.35;;;;;;;;;;6255410;22;20015;-81
2023/03/27 14:51:00;;;;;;;3.85;3.60;;;;;;;;;;6306853;22;20072;-80
2023/03/27 14:53:30;;;;;;;5.43;5.03;;;;;;;;;;6308478;22;20423;-81
2023/03/27 14:56:18;;;;;;;4.38;4.07;;;;;;;;;;6285636;22;20423;-81
2023/03/27 14:58:59;;;;;;;4.40;4.10;;;;;;;;;;6307062;22;20093;-80
2023/03/27 15:01:34;;;;;;;3.40;3.17;;;;;;;;;;6308189;22;20499;-81
2023/03/27 15:04:01;;;;;;;3.53;3.28;;;;;;;;;;6282624;22;20052;-82
2023/03/27 15:06:28;;;;;;;4.40;4.10;;;;;;;;;;6338239;22;20010;-81
2023/03/27 15:08:59;;;;;;;3.63;3.42;;;;;;;;;;6308535;22;20083;-80
2023/03/27 15:11:54;;;;;;;4.57;4.28;;;;;;;;;;6308497;22;20018;-79
2023/03/27 15:14:27;;;;;;;5.22;4.82;;;;;;;;;;6317272;22;20014;-80
2023/03/27 15:17:02;;;;;;;4.70;4.30;;;;;;;;;;6311420;22;20456;-82
2023/03/27 15:19:30;;;;;;;4.97;4.57;;;;;;;;;;6289510;22;20522;-83